Littlesburg, West Virginia
Current Conditions -  °F | °C
As of 1:52 AM on Thursday 18 Dec 2014 (Local Time) from KBLF Reporting Station
Overcast Overcast  
Wind Chill: 19°   Ceiling: 1000
Heat Index: 29°   Visibility: 10mi
Dew Point: 22°   Wind: 12mph
Humidity: 75%   Direction: 280°W
Pressure: 30.11"   Gusts: NA
Location:  37.2994°N, 81.226°W
Report Text: KBLF 180652Z AUTO 28010KT 10SM OVC010 M02/M06 A3011 RMK AO2 SLP208 T10171056
Loading
Personal Weather Stations






























Interactive Weather Map New forecast layout! Learn more

10-Day Weather Forecast

Advertisements
Track Severe Weather on mobile